Time;durP1;ratioP1;P1;durP2;ratioP2;P2;SDS_P1;SDS_P2;PMS_P1;PMS_P2;Temp;Humidity;BMP_temperature;BMP_pressure;BME280_temperature;BME280_humidity;BME280_pressure;Samples;Min_cycle;Max_cycle;Signal;HPM_P1;HPM_P2
2021/04/29 00:02:21;;;;;;;12.70;9.60;;;;;;;14.52;67.87;95230.38;5034047;28;20236;-68
2021/04/29 00:04:46;;;;;;;11.70;9.47;;;;;;;14.49;68.12;95224.75;5034267;28;20196;-68
2021/04/29 00:07:12;;;;;;;10.53;9.43;;;;;;;14.35;68.51;95234.69;5034312;28;20195;-68
2021/04/29 00:09:37;;;;;;;12.47;8.87;;;;;;;14.42;68.47;95227.47;5034095;28;20265;-68
2021/04/29 00:12:05;;;;;;;14.03;9.23;;;;;;;14.39;68.62;95223.47;5033891;28;20226;-68
2021/04/29 00:14:30;;;;;;;11.33;10.03;;;;;;;14.47;68.82;95232.88;5033863;28;20192;-69
2021/04/29 00:16:56;;;;;;;12.83;10.43;;;;;;;14.52;68.41;95235.63;5033567;28;20472;-68
2021/04/29 00:19:22;;;;;;;20.87;9.97;;;;;;;14.45;68.83;95227.03;5033404;28;20190;-68
2021/04/29 00:21:47;;;;;;;10.70;9.57;;;;;;;14.54;68.70;95230.94;5032849;28;20180;-67
2021/04/29 00:24:13;;;;;;;11.13;9.97;;;;;;;14.62;68.47;95229.81;5032845;28;20664;-68
2021/04/29 00:26:38;;;;;;;14.03;10.53;;;;;;;14.61;68.53;95235.31;5032920;28;20195;-67
2021/04/29 00:29:04;;;;;;;13.17;9.87;;;;;;;14.42;69.15;95235.38;5033636;28;20241;-68
2021/04/29 00:31:30;;;;;;;11.77;10.10;;;;;;;14.40;69.42;95232.16;5032955;28;20219;-66
2021/04/29 00:33:57;;;;;;;13.67;11.07;;;;;;;14.47;69.24;95243.44;5035262;28;20433;-68
2021/04/29 00:36:22;;;;;;;12.00;10.17;;;;;;;14.63;68.74;95243.78;5033241;28;20195;-67
2021/04/29 00:38:48;;;;;;;14.97;10.90;;;;;;;14.58;68.89;95236.56;5033057;28;20430;-67
2021/04/29 00:41:14;;;;;;;14.40;10.20;;;;;;;14.56;69.06;95243.88;5032955;28;20213;-68
2021/04/29 00:43:39;;;;;;;13.53;10.13;;;;;;;14.39;69.92;95246.34;5033619;28;20191;-68
2021/04/29 00:46:05;;;;;;;11.10;10.00;;;;;;;14.20;70.70;95245.59;5032141;28;20204;-69
2021/04/29 00:48:31;;;;;;;12.80;10.63;;;;;;;14.09;71.24;95249.81;5031933;28;20545;-68
2021/04/29 00:50:57;;;;;;;12.23;10.20;;;;;;;13.98;71.72;95232.91;5032414;28;20543;-68
2021/04/29 00:53:34;;;;;;;14.47;10.83;;;;;;;14.18;71.68;95248.47;5032205;28;20461;-68
2021/04/29 00:55:59;;;;;;;12.50;10.97;;;;;;;14.18;71.82;95248.47;5038650;28;20186;-67
2021/04/29 00:58:25;;;;;;;13.13;11.33;;;;;;;14.14;71.84;95242.03;5032846;28;20430;-68
2021/04/29 01:00:50;;;;;;;12.13;10.90;;;;;;;13.93;72.96;95249.38;5035141;28;20211;-68
2021/04/29 01:03:41;;;;;;;13.40;11.03;;;;;;;14.04;72.60;95253.13;5032387;28;20349;-67
2021/04/29 01:06:28;;;;;;;12.37;11.07;;;;;;;14.20;72.13;95248.22;5035619;28;20191;-67
2021/04/29 01:09:00;;;;;;;11.43;9.77;;;;;;;14.22;71.36;95252.28;5033533;28;20454;-67
2021/04/29 01:11:27;;;;;;;11.20;9.77;;;;;;;13.92;72.82;95262.78;5047191;28;20863;-68
2021/04/29 01:13:55;;;;;;;10.20;9.00;;;;;;;13.78;74.05;95267.38;5032286;28;20821;-69
2021/04/29 01:16:23;;;;;;;9.70;8.03;;;;;;;14.02;72.15;95259.59;5035451;28;20513;-67
2021/04/29 01:18:51;;;;;;;10.33;8.40;;;;;;;13.73;73.33;95262.78;5040323;28;20429;-67
2021/04/29 01:21:17;;;;;;;9.73;8.83;;;;;;;14.13;71.43;95256.22;5055249;28;20442;-67
2021/04/29 01:23:42;;;;;;;8.30;7.40;;;;;;;13.91;71.79;95261.16;5038112;28;20449;-67
2021/04/29 01:26:29;;;;;;;8.67;6.70;;;;;;;13.81;72.85;95262.47;5036846;28;20188;-67
2021/04/29 01:28:56;;;;;;;7.43;6.73;;;;;;;13.90;72.21;95257.72;5036254;28;20183;-67
2021/04/29 01:31:24;;;;;;;11.20;6.80;;;;;;;14.13;71.21;95258.84;5034209;28;20481;-69
2021/04/29 01:33:51;;;;;;;6.80;6.10;;;;;;;14.06;70.47;95250.25;5034608;28;20437;-67
2021/04/29 01:36:17;;;;;;;6.93;6.23;;;;;;;13.67;71.74;95261.81;5051365;28;20429;-67
2021/04/29 01:38:44;;;;;;;7.93;6.00;;;;;;;13.94;70.88;95258.91;5017416;28;20477;-68
2021/04/29 01:41:09;;;;;;;6.47;5.87;;;;;;;13.92;71.42;95257.53;5035393;28;20445;-68
2021/04/29 01:43:36;;;;;;;9.27;5.87;;;;;;;13.90;70.45;95260.34;5051806;28;20430;-67
2021/04/29 01:46:04;;;;;;;6.07;5.47;;;;;;;13.81;70.91;95269.56;5050851;28;20176;-68
2021/04/29 01:48:30;;;;;;;5.07;4.60;;;;;;;13.84;71.22;95271.78;5049867;28;20500;-68
2021/04/29 01:50:57;;;;;;;4.83;4.33;;;;;;;13.86;70.75;95271.56;5053914;28;20207;-67
2021/04/29 01:53:27;;;;;;;6.33;4.57;;;;;;;14.06;69.62;95266.84;5035117;28;20799;-68
2021/04/29 01:55:54;;;;;;;4.17;3.87;;;;;;;13.88;70.32;95278.19;5034456;28;20426;-67
2021/04/29 01:58:21;;;;;;;4.80;3.77;;;;;;;13.92;70.33;95279.38;5036448;28;20428;-66
2021/04/29 02:00:46;;;;;;;3.70;3.40;;;;;;;13.94;70.08;95281.78;5034590;28;21011;-67
2021/04/29 02:03:12;;;;;;;3.43;3.00;;;;;;;13.35;71.42;95288.25;5035271;28;20501;-69
2021/04/29 02:05:38;;;;;;;4.63;2.53;;;;;;;13.89;69.94;95294.81;5033920;28;20265;-68
2021/04/29 02:08:05;;;;;;;2.60;2.40;;;;;;;13.73;70.47;95288.31;5038777;28;20520;-67
2021/04/29 02:10:31;;;;;;;2.70;2.50;;;;;;;13.86;70.33;95293.41;5034355;28;20207;-68
2021/04/29 02:12:57;;;;;;;4.30;2.53;;;;;;;13.93;70.21;95302.03;5051820;28;20585;-69
2021/04/29 02:15:32;;;;;;;2.23;2.03;;;;;;;14.16;68.52;95297.94;5036432;28;20427;-68
2021/04/29 02:18:09;;;;;;;4.73;2.33;;;;;;;13.96;69.07;95301.63;5018344;28;20441;-69
2021/04/29 02:20:42;;;;;;;2.80;2.20;;;;;;;13.26;71.88;95305.28;5034403;28;20442;-68
2021/04/29 02:23:10;;;;;;;1.90;1.80;;;;;;;13.88;69.56;95319.53;5036046;28;20442;-68
2021/04/29 02:25:36;;;;;;;2.13;1.70;;;;;;;13.36;71.70;95312.69;5051019;28;20484;-68
2021/04/29 02:28:02;;;;;;;1.80;1.70;;;;;;;13.72;69.54;95315.66;5033628;28;20944;-68
2021/04/29 02:30:28;;;;;;;1.70;1.53;;;;;;;13.86;68.62;95314.47;5032848;28;20458;-67
2021/04/29 02:32:53;;;;;;;1.50;1.40;;;;;;;13.81;68.61;95320.38;5034434;28;20461;-67
2021/04/29 02:35:19;;;;;;;1.87;1.77;;;;;;;13.82;68.58;95308.03;5019746;28;20266;-67
2021/04/29 02:37:48;;;;;;;1.70;1.60;;;;;;;13.83;68.64;95307.81;5035129;28;20192;-68
2021/04/29 02:40:14;;;;;;;1.80;1.70;;;;;;;13.73;69.18;95306.72;5034058;28;20446;-67
2021/04/29 02:42:40;;;;;;;1.63;1.53;;;;;;;13.95;67.85;95315.81;5034433;28;20850;-68
2021/04/29 02:45:07;;;;;;;1.70;1.60;;;;;;;13.79;68.69;95319.00;5032822;28;20498;-67
2021/04/29 02:47:33;;;;;;;1.30;1.20;;;;;;;13.73;68.30;95318.06;5036871;28;20187;-67
2021/04/29 02:49:59;;;;;;;1.60;1.40;;;;;;;13.71;69.06;95327.19;5032539;28;20443;-67
2021/04/29 02:52:24;;;;;;;1.57;1.47;;;;;;;13.40;70.24;95340.22;5034234;28;20211;-68
2021/04/29 02:54:50;;;;;;;3.10;1.50;;;;;;;13.18;71.81;95345.81;5034490;28;20187;-67
2021/04/29 02:57:22;;;;;;;2.17;1.97;;;;;;;13.37;72.20;95351.94;5037792;28;20202;-68
2021/04/29 02:59:48;;;;;;;5.40;2.70;;;;;;;13.22;73.52;95377.78;5039858;28;20207;-69
2021/04/29 03:02:14;;;;;;;1.63;1.53;;;;;;;13.30;73.63;95387.22;5038792;28;20427;-68
2021/04/29 03:04:40;;;;;;;2.70;1.30;;;;;;;12.90;74.47;95372.50;5038616;28;20517;-68
2021/04/29 03:07:05;;;;;;;1.87;1.20;;;;;;;12.97;73.97;95378.56;5039917;28;20515;-70
2021/04/29 03:09:49;;;;;;;2.00;1.40;;;;;;;12.78;74.68;95379.47;5039113;28;20705;-69
2021/04/29 03:12:14;;;;;;;1.30;1.20;;;;;;;12.93;74.27;95372.09;5053691;28;20262;-69
2021/04/29 03:14:40;;;;;;;1.83;1.67;;;;;;;13.08;73.89;95382.31;5036490;28;20438;-69
2021/04/29 03:17:06;;;;;;;4.80;1.73;;;;;;;13.25;72.52;95390.47;5036342;28;20187;-68
2021/04/29 03:19:31;;;;;;;1.33;1.23;;;;;;;13.22;73.09;95390.94;5036681;28;20192;-69
2021/04/29 03:21:57;;;;;;;2.73;1.30;;;;;;;12.92;73.59;95385.47;5036133;28;20612;-69
2021/04/29 03:24:22;;;;;;;1.50;1.40;;;;;;;12.93;73.60;95392.31;5035952;28;20179;-69
2021/04/29 03:26:48;;;;;;;2.07;1.30;;;;;;;12.85;72.72;95396.03;5035705;28;20184;-67
2021/04/29 03:29:14;;;;;;;1.83;1.10;;;;;;;12.46;73.42;95408.31;5034278;28;20217;-68
2021/04/29 03:31:39;;;;;;;2.07;1.10;;;;;;;12.57;73.06;95397.16;5043541;28;20211;-68
2021/04/29 03:34:05;;;;;;;1.30;1.20;;;;;;;12.60;72.98;95402.78;5035884;28;20190;-67
2021/04/29 03:36:31;;;;;;;1.10;1.00;;;;;;;12.59;71.69;95409.06;5035654;28;20187;-68
2021/04/29 03:38:57;;;;;;;1.57;1.40;;;;;;;12.57;72.14;95418.19;5033563;28;20179;-68
2021/04/29 03:41:22;;;;;;;9.73;1.13;;;;;;;12.46;71.82;95418.81;5034298;28;20447;-69
2021/04/29 03:43:48;;;;;;;0.90;0.70;;;;;;;12.47;71.62;95418.59;5036778;28;20214;-67
2021/04/29 03:46:14;;;;;;;1.43;1.33;;;;;;;12.47;70.79;95425.69;5032042;28;20200;-67
2021/04/29 03:48:39;;;;;;;1.53;0.90;;;;;;;12.38;71.31;95423.28;5022680;28;20208;-67
2021/04/29 03:51:05;;;;;;;1.30;0.90;;;;;;;12.55;70.74;95428.09;5028329;28;20256;-69
2021/04/29 03:53:31;;;;;;;1.47;0.90;;;;;;;12.37;70.82;95436.63;5029842;28;20198;-67
2021/04/29 03:55:57;;;;;;;2.50;0.83;;;;;;;12.52;70.35;95444.25;5030206;28;20187;-68
2021/04/29 03:58:23;;;;;;;1.57;1.00;;;;;;;12.76;69.20;95442.75;5031955;28;20270;-68
2021/04/29 04:00:49;;;;;;;3.23;1.07;;;;;;;12.97;68.28;95436.41;5033825;28;20450;-67
2021/04/29 04:03:14;;;;;;;1.00;0.90;;;;;;;12.89;68.61;95440.06;5031398;28;20423;-68
2021/04/29 04:05:40;;;;;;;2.30;1.20;;;;;;;12.94;67.82;95442.06;5031454;28;20187;-67
2021/04/29 04:08:06;;;;;;;1.27;1.17;;;;;;;12.73;68.70;95441.34;5034579;28;20183;-67
2021/04/29 04:10:31;;;;;;;2.60;1.27;;;;;;;12.80;68.76;95445.78;5043574;28;20203;-67
2021/04/29 04:12:57;;;;;;;2.70;1.20;;;;;;;12.89;68.20;95455.84;5033651;28;20215;-67
2021/04/29 04:15:23;;;;;;;2.13;1.63;;;;;;;12.85;68.60;95462.53;5034676;28;20234;-68
2021/04/29 04:17:48;;;;;;;1.87;1.60;;;;;;;12.42;68.62;95458.63;5034143;28;20191;-67
2021/04/29 04:20:14;;;;;;;1.40;1.27;;;;;;;12.52;68.33;95462.66;5043517;28;20281;-66
2021/04/29 04:22:40;;;;;;;1.77;1.10;;;;;;;12.44;67.63;95474.19;5031459;28;20196;-67
2021/04/29 04:25:06;;;;;;;2.30;1.30;;;;;;;12.57;66.89;95461.00;5032982;28;20199;-68
2021/04/29 04:27:32;;;;;;;1.53;1.30;;;;;;;12.51;66.49;95471.53;5048221;28;20247;-67
2021/04/29 04:29:58;;;;;;;4.27;1.37;;;;;;;12.41;66.60;95483.28;5031810;28;20524;-66
2021/04/29 04:32:24;;;;;;;2.50;1.63;;;;;;;12.77;65.65;95473.28;5031323;28;20429;-67
2021/04/29 04:34:49;;;;;;;1.63;1.53;;;;;;;12.74;65.87;95474.50;5024907;28;20523;-67
2021/04/29 04:37:15;;;;;;;3.87;1.47;;;;;;;12.71;66.08;95471.47;5035457;28;20539;-67
2021/04/29 04:39:41;;;;;;;1.93;1.70;;;;;;;12.39;66.38;95482.69;5032301;28;20223;-66
2021/04/29 04:42:06;;;;;;;2.03;1.60;;;;;;;12.72;65.13;95473.09;5031253;28;20544;-66
2021/04/29 04:44:32;;;;;;;3.20;1.50;;;;;;;12.62;65.49;95477.97;5033000;28;20283;-67
2021/04/29 04:46:57;;;;;;;3.97;1.93;;;;;;;12.47;65.66;95470.34;5033110;28;20555;-67
2021/04/29 04:49:23;;;;;;;1.90;1.80;;;;;;;12.87;64.13;95478.91;5033069;28;20246;-67
2021/04/29 04:51:49;;;;;;;14.73;2.43;;;;;;;12.63;65.41;95485.66;5034625;28;20271;-68
2021/04/29 04:54:16;;;;;;;7.23;1.80;;;;;;;12.60;65.74;95493.97;5041864;28;20192;-67
2021/04/29 04:56:41;;;;;;;3.20;2.23;;;;;;;12.75;65.62;95486.63;5051956;28;20617;-67
2021/04/29 04:59:07;;;;;;;7.03;2.30;;;;;;;12.37;65.70;95500.47;5036901;28;20502;-67
2021/04/29 05:01:32;;;;;;;2.43;2.23;;;;;;;12.22;65.71;95502.53;5036924;28;20257;-66
2021/04/29 05:03:58;;;;;;;3.70;2.13;;;;;;;12.68;64.93;95506.88;5026445;28;20539;-68
2021/04/29 05:06:24;;;;;;;3.83;2.23;;;;;;;12.56;65.25;95508.53;5051597;28;20215;-67
2021/04/29 05:08:50;;;;;;;5.00;2.30;;;;;;;12.54;64.77;95507.91;5035970;28;20664;-66
2021/04/29 05:11:15;;;;;;;5.47;2.80;;;;;;;12.73;63.49;95499.16;5036079;28;20207;-67
2021/04/29 05:13:41;;;;;;;3.77;2.90;;;;;;;12.65;63.82;95506.50;5050919;28;20612;-66
2021/04/29 05:16:07;;;;;;;3.37;2.60;;;;;;;12.46;65.50;95518.66;5036012;28;20184;-67
2021/04/29 05:18:32;;;;;;;3.03;2.77;;;;;;;12.00;65.27;95521.09;5035759;28;20661;-67
2021/04/29 05:20:58;;;;;;;2.80;2.60;;;;;;;12.12;65.46;95514.25;5034715;28;20214;-67
2021/04/29 05:23:23;;;;;;;5.23;3.30;;;;;;;12.37;63.80;95526.72;5035300;28;20294;-67
2021/04/29 05:25:49;;;;;;;3.63;3.33;;;;;;;12.72;63.32;95517.78;5035909;28;20191;-67
2021/04/29 05:28:14;;;;;;;4.73;3.50;;;;;;;12.84;62.15;95517.94;5035494;28;20203;-68
2021/04/29 05:30:40;;;;;;;3.90;3.30;;;;;;;13.09;61.90;95527.75;5036721;28;20584;-66
2021/04/29 05:33:06;;;;;;;3.70;3.40;;;;;;;13.09;61.43;95514.63;5036776;28;20223;-67
2021/04/29 05:35:31;;;;;;;4.53;3.20;;;;;;;12.81;61.93;95508.63;5039333;28;20180;-67
2021/04/29 05:37:57;;;;;;;4.70;3.07;;;;;;;12.83;61.76;95508.44;5036981;28;20188;-68
2021/04/29 05:40:22;;;;;;;4.23;3.47;;;;;;;13.14;61.35;95504.25;5035221;28;20207;-66
2021/04/29 05:42:48;;;;;;;4.50;3.77;;;;;;;12.95;61.52;95514.66;5035085;28;20180;-68
2021/04/29 05:45:14;;;;;;;5.90;3.70;;;;;;;13.18;61.11;95505.47;5035240;28;20186;-68
2021/04/29 05:47:40;;;;;;;3.77;3.30;;;;;;;13.37;60.33;95515.06;5055495;28;20184;-68
2021/04/29 05:50:06;;;;;;;9.03;3.70;;;;;;;13.34;60.36;95518.13;5038677;28;20446;-68
2021/04/29 05:52:32;;;;;;;4.63;3.53;;;;;;;13.36;60.67;95521.34;5039572;28;20455;-68
2021/04/29 05:54:58;;;;;;;4.37;3.67;;;;;;;12.94;61.93;95530.63;5035624;28;20463;-68
2021/04/29 05:57:24;;;;;;;3.80;3.00;;;;;;;13.20;61.18;95529.72;5034646;28;20514;-69
2021/04/29 05:59:50;;;;;;;5.30;3.60;;;;;;;13.04;61.59;95533.66;5033014;28;20443;-69
2021/04/29 06:02:16;;;;;;;5.20;3.50;;;;;;;13.06;60.69;95528.97;5034306;28;20426;-68
2021/04/29 06:04:41;;;;;;;4.30;3.90;;;;;;;13.00;61.76;95533.25;5040584;28;20180;-69
2021/04/29 06:07:10;;;;;;;4.70;3.60;;;;;;;12.96;61.42;95531.25;5040329;28;20587;-69
2021/04/29 06:09:36;;;;;;;4.17;3.77;;;;;;;13.35;60.11;95537.34;5036941;28;20269;-69
2021/04/29 06:12:02;;;;;;;3.73;3.37;;;;;;;13.23;60.53;95546.91;5034145;28;20877;-69
2021/04/29 06:14:27;;;;;;;5.23;3.93;;;;;;;13.43;60.07;95533.69;5034230;28;20571;-68
2021/04/29 06:16:53;;;;;;;3.80;3.33;;;;;;;13.47;60.06;95525.16;5033980;28;20210;-69
2021/04/29 06:19:19;;;;;;;5.03;4.33;;;;;;;13.57;59.48;95532.59;5033775;28;20184;-68
2021/04/29 06:21:45;;;;;;;4.13;3.73;;;;;;;13.67;59.46;95524.25;5034650;28;20234;-67
2021/04/29 06:24:11;;;;;;;5.03;4.20;;;;;;;13.61;59.33;95520.59;5034569;28;20759;-69
2021/04/29 06:26:40;;;;;;;6.80;4.57;;;;;;;13.52;59.08;95516.63;5037836;28;20451;-70
2021/04/29 06:29:06;;;;;;;6.83;4.40;;;;;;;14.01;58.64;95513.44;5036555;28;20567;-67
2021/04/29 06:31:35;;;;;;;7.00;4.53;;;;;;;13.78;58.25;95530.63;5033535;28;20489;-68
2021/04/29 06:34:01;;;;;;;7.03;4.17;;;;;;;13.97;58.24;95529.69;5033575;28;20275;-68
2021/04/29 06:36:26;;;;;;;7.90;3.97;;;;;;;13.61;58.83;95539.03;5034337;28;20537;-69
2021/04/29 06:38:52;;;;;;;7.93;4.50;;;;;;;13.59;58.93;95524.47;5036275;28;20650;-68
2021/04/29 06:41:17;;;;;;;5.40;4.80;;;;;;;13.70;57.98;95529.06;5033982;28;20269;-68
2021/04/29 06:43:43;;;;;;;4.90;4.40;;;;;;;13.95;58.10;95525.63;5033874;28;20179;-68
2021/04/29 06:46:11;;;;;;;6.07;4.83;;;;;;;13.42;59.45;95534.72;5034493;28;20182;-67
2021/04/29 06:48:37;;;;;;;7.43;5.17;;;;;;;14.11;57.82;95535.66;5033969;28;20223;-67
2021/04/29 06:51:03;;;;;;;8.90;5.17;;;;;;;14.37;57.03;95538.25;5033565;28;20446;-68
2021/04/29 06:53:29;;;;;;;6.20;5.30;;;;;;;14.67;55.87;95532.31;5033670;28;20928;-67
2021/04/29 06:55:55;;;;;;;7.77;5.83;;;;;;;14.75;55.90;95529.41;5034191;28;20434;-67
2021/04/29 06:58:20;;;;;;;6.60;4.83;;;;;;;15.07;55.21;95533.72;5036071;28;20199;-67
2021/04/29 07:00:46;;;;;;;6.57;5.47;;;;;;;15.15;54.22;95536.06;5033680;28;20269;-68
2021/04/29 07:03:11;;;;;;;8.07;5.00;;;;;;;15.39;53.78;95534.31;5049417;28;20176;-69
2021/04/29 07:05:37;;;;;;;5.30;4.50;;;;;;;15.14;54.76;95540.50;5035866;28;20216;-68
2021/04/29 07:08:03;;;;;;;11.60;5.20;;;;;;;15.48;53.78;95548.00;5033697;28;20246;-67
2021/04/29 07:10:28;;;;;;;8.70;5.70;;;;;;;15.49;53.79;95539.06;5032890;28;20236;-68
2021/04/29 07:12:54;;;;;;;6.73;6.10;;;;;;;15.36;53.71;95537.44;5033775;28;20243;-68
2021/04/29 07:15:20;;;;;;;9.57;5.60;;;;;;;15.55;52.73;95542.66;5034626;28;20196;-67
2021/04/29 07:17:47;;;;;;;5.40;4.90;;;;;;;15.80;53.14;95539.88;5034014;28;20187;-67
2021/04/29 07:20:13;;;;;;;7.07;5.63;;;;;;;15.74;52.85;95543.41;5032761;28;20200;-67
2021/04/29 07:22:39;;;;;;;6.20;5.33;;;;;;;15.15;54.83;95550.03;5033321;28;20783;-66
2021/04/29 07:25:07;;;;;;;8.07;5.87;;;;;;;15.44;53.92;95554.75;5032493;28;20454;-66
2021/04/29 07:27:34;;;;;;;7.90;5.17;;;;;;;16.10;52.38;95555.69;5031520;28;20329;-67
2021/04/29 07:30:00;;;;;;;7.23;5.23;;;;;;;16.07;51.43;95550.03;5031100;28;20454;-69
2021/04/29 07:32:25;;;;;;;5.80;5.17;;;;;;;15.77;52.03;95551.66;5033008;28;20454;-68
2021/04/29 07:34:51;;;;;;;6.67;5.80;;;;;;;15.80;52.41;95548.56;5032992;28;20201;-69
2021/04/29 07:37:16;;;;;;;7.40;5.60;;;;;;;15.55;52.50;95561.13;5033094;28;20191;-66
2021/04/29 07:39:42;;;;;;;7.93;5.93;;;;;;;15.16;53.76;95572.75;5032688;28;20179;-67
2021/04/29 07:42:07;;;;;;;8.10;5.87;;;;;;;16.03;51.76;95570.03;5032619;28;20175;-67
2021/04/29 07:44:33;;;;;;;9.10;6.10;;;;;;;15.65;52.57;95564.03;5032931;28;20192;-67
2021/04/29 07:47:00;;;;;;;6.90;5.73;;;;;;;15.46;52.89;95566.72;5032733;28;20195;-68
2021/04/29 07:49:26;;;;;;;13.50;6.60;;;;;;;16.28;49.87;95561.91;5032684;28;20623;-67
2021/04/29 07:51:52;;;;;;;6.83;6.23;;;;;;;16.51;49.23;95563.75;5032234;28;20450;-66
2021/04/29 07:54:18;;;;;;;7.70;6.83;;;;;;;15.31;51.63;95568.94;5047528;28;20426;-68
2021/04/29 07:56:44;;;;;;;7.37;6.40;;;;;;;15.92;50.77;95568.97;5032209;28;20912;-66
2021/04/29 07:59:10;;;;;;;10.83;7.30;;;;;;;16.22;49.22;95574.19;5032426;28;20183;-68
2021/04/29 08:01:36;;;;;;;10.63;7.30;;;;;;;16.56;47.71;95573.63;5030556;28;20462;-68
2021/04/29 08:04:02;;;;;;;8.80;6.97;;;;;;;16.38;47.85;95572.69;5032754;28;20176;-67
2021/04/29 08:06:28;;;;;;;10.30;7.80;;;;;;;16.50;48.00;95575.38;5032816;28;20184;-67
2021/04/29 08:08:54;;;;;;;8.73;7.77;;;;;;;17.16;46.41;95582.34;5038824;28;20183;-66
2021/04/29 08:11:20;;;;;;;9.97;7.00;;;;;;;17.64;45.39;95570.56;5032561;28;20450;-66
2021/04/29 08:13:45;;;;;;;7.80;7.00;;;;;;;16.76;47.38;95575.94;5034708;28;20464;-67
2021/04/29 08:16:11;;;;;;;14.37;8.07;;;;;;;15.93;48.28;95575.84;5039603;28;20180;-67
2021/04/29 08:18:37;;;;;;;11.57;7.83;;;;;;;16.34;47.77;95571.56;5015477;28;20781;-66
2021/04/29 08:21:05;;;;;;;15.83;8.80;;;;;;;15.75;48.49;95584.63;5032002;28;20203;-67
2021/04/29 08:23:30;;;;;;;13.50;8.80;;;;;;;16.84;45.76;95586.16;5032871;28;20187;-66
2021/04/29 08:25:56;;;;;;;12.73;8.70;;;;;;;17.22;45.12;95589.38;5033290;28;20948;-66
2021/04/29 08:28:22;;;;;;;21.53;8.90;;;;;;;17.27;45.16;95586.00;5036521;28;20183;-66
2021/04/29 08:30:48;;;;;;;11.00;8.37;;;;;;;17.16;45.32;95580.50;5036736;28;20203;-66
2021/04/29 08:33:13;;;;;;;11.00;8.93;;;;;;;16.34;47.41;95578.69;5043699;28;20204;-66
2021/04/29 08:35:39;;;;;;;16.10;9.80;;;;;;;16.09;47.41;95575.22;5037211;28;20211;-66
2021/04/29 08:38:04;;;;;;;11.63;9.03;;;;;;;15.81;47.96;95581.88;5037011;28;20269;-66
2021/04/29 08:40:30;;;;;;;14.00;9.00;;;;;;;16.20;47.49;95580.75;5036802;28;20209;-66
2021/04/29 08:42:56;;;;;;;10.97;9.60;;;;;;;15.92;47.84;95588.28;5036001;28;20175;-66
2021/04/29 08:45:23;;;;;;;16.23;11.00;;;;;;;17.07;45.40;95589.03;5036807;28;20218;-68
2021/04/29 08:47:51;;;;;;;11.60;9.47;;;;;;;16.55;46.29;95593.19;5039196;28;20422;-66
2021/04/29 08:50:17;;;;;;;12.70;9.00;;;;;;;17.45;43.99;95590.31;5037159;28;20454;-67
2021/04/29 08:52:43;;;;;;;11.53;8.90;;;;;;;17.37;44.46;95582.78;5035440;28;20458;-67
2021/04/29 08:55:13;;;;;;;12.67;9.50;;;;;;;17.37;44.53;95583.56;5035978;28;20517;-67
2021/04/29 08:57:39;;;;;;;10.67;8.83;;;;;;;17.22;44.85;95576.13;5050820;28;20275;-67
2021/04/29 09:00:07;;;;;;;14.17;8.67;;;;;;;17.17;44.16;95587.41;5030402;28;20525;-66
2021/04/29 09:02:32;;;;;;;12.47;9.30;;;;;;;16.68;45.22;95581.59;5026710;28;20202;-66
2021/04/29 09:05:11;;;;;;;14.10;9.07;;;;;;;16.37;45.57;95580.88;5036655;28;20419;-68
2021/04/29 09:07:37;;;;;;;10.63;9.00;;;;;;;17.28;44.47;95590.28;5044920;28;20569;-68
2021/04/29 09:10:04;;;;;;;9.30;7.70;;;;;;;17.73;42.45;95594.03;5035861;28;20439;-67
2021/04/29 09:12:43;;;;;;;11.17;8.57;;;;;;;17.77;42.47;95590.66;5035956;28;20583;-66
2021/04/29 09:15:26;;;;;;;9.97;8.60;;;;;;;16.27;45.76;95584.06;5028567;28;20454;-66
2021/04/29 09:18:13;;;;;;;11.47;8.80;;;;;;;16.49;46.01;95586.19;5035530;28;20480;-66
2021/04/29 09:20:52;;;;;;;17.97;7.63;;;;;;;15.99;47.20;95596.09;5034191;28;20826;-65
2021/04/29 09:23:25;;;;;;;13.20;7.77;;;;;;;16.05;47.37;95592.53;5034779;28;20533;-65
2021/04/29 09:26:03;;;;;;;11.43;8.43;;;;;;;15.91;47.99;95610.44;5034867;28;20426;-68
2021/04/29 09:28:48;;;;;;;12.10;8.00;;;;;;;15.97;48.34;95614.00;5035510;28;20414;-66
2021/04/29 09:31:13;;;;;;;10.90;8.80;;;;;;;15.43;50.83;95622.59;5033586;28;20512;-66
2021/04/29 09:33:44;;;;;;;11.53;6.80;;;;;;;14.29;55.59;95640.28;5034518;28;20717;-68
2021/04/29 09:36:28;;;;;;;11.67;7.23;;;;;;;13.76;58.74;95646.69;5038061;28;20210;-69
2021/04/29 09:38:58;;;;;;;11.60;8.60;;;;;;;13.65;60.65;95636.81;5038329;28;20427;-69
2021/04/29 09:41:32;;;;;;;10.40;8.17;;;;;;;13.57;59.27;95640.50;5038177;28;20454;-69
2021/04/29 09:44:01;;;;;;;15.67;8.87;;;;;;;13.14;61.41;95654.16;5039908;28;20498;-69
2021/04/29 09:46:40;;;;;;;15.70;9.70;;;;;;;13.37;61.18;95651.06;5037873;28;20423;-69
2021/04/29 09:49:15;;;;;;;11.97;9.40;;;;;;;13.11;63.32;95651.94;5039667;28;20452;-71
2021/04/29 09:51:40;;;;;;;12.57;9.97;;;;;;;13.28;63.28;95647.84;5039463;28;20519;-70
2021/04/29 09:54:06;;;;;;;13.87;10.00;;;;;;;13.34;63.47;95636.53;5036014;28;20905;-69
2021/04/29 09:56:31;;;;;;;17.00;9.63;;;;;;;13.74;63.58;95630.28;5035861;28;20183;-68
2021/04/29 09:58:59;;;;;;;12.90;10.53;;;;;;;14.04;62.50;95624.47;5041379;28;20176;-69
2021/04/29 10:01:27;;;;;;;12.67;10.30;;;;;;;14.10;61.42;95617.53;5033344;28;20208;-71
2021/04/29 10:03:54;;;;;;;16.83;10.47;;;;;;;14.26;61.36;95616.19;5033696;28;20929;-69
2021/04/29 10:06:21;;;;;;;14.43;9.67;;;;;;;14.81;61.07;95607.63;5039848;28;20438;-69
2021/04/29 10:08:49;;;;;;;13.10;9.30;;;;;;;15.39;59.47;95616.13;5058275;28;20434;-68
2021/04/29 10:11:15;;;;;;;12.10;9.90;;;;;;;16.00;58.03;95618.84;5019805;28;20474;-69
2021/04/29 10:13:44;;;;;;;21.07;9.43;;;;;;;15.93;55.91;95613.66;5034423;28;20470;-69
2021/04/29 10:16:10;;;;;;;9.00;8.10;;;;;;;15.64;54.42;95609.94;5036699;28;20183;-69
2021/04/29 10:18:37;;;;;;;9.50;8.50;;;;;;;16.33;55.37;95611.44;5038461;28;20419;-68
2021/04/29 10:21:03;;;;;;;11.63;8.37;;;;;;;16.71;53.21;95612.84;5040547;28;20203;-69
2021/04/29 10:23:29;;;;;;;16.87;8.90;;;;;;;16.66;52.97;95604.81;5046262;28;20718;-68
2021/04/29 10:25:59;;;;;;;9.77;7.77;;;;;;;16.53;50.85;95590.78;5058247;28;20472;-69
2021/04/29 10:28:32;;;;;;;11.20;8.40;;;;;;;17.17;50.11;95610.41;5035111;28;20184;-68
2021/04/29 10:30:58;;;;;;;8.87;7.53;;;;;;;17.16;49.25;95606.16;5030654;28;20431;-69
2021/04/29 10:33:24;;;;;;;8.90;6.77;;;;;;;17.54;47.18;95599.50;5039402;28;20564;-68
2021/04/29 10:35:55;;;;;;;9.53;7.83;;;;;;;17.72;46.76;95600.38;5034714;28;20437;-69
2021/04/29 10:38:36;;;;;;;8.40;6.97;;;;;;;18.00;44.93;95601.44;5033253;28;20488;-67
2021/04/29 10:41:21;;;;;;;9.47;6.27;;;;;;;17.47;43.86;95607.59;5040427;28;20438;-68
2021/04/29 10:43:47;;;;;;;8.73;6.73;;;;;;;17.40;43.67;95606.09;5034378;28;20826;-68
2021/04/29 10:46:27;;;;;;;8.50;6.80;;;;;;;17.50;42.94;95603.69;5032865;28;20426;-67
2021/04/29 10:48:53;;;;;;;8.80;6.20;;;;;;;17.88;43.12;95593.50;5032460;28;20429;-69
2021/04/29 10:51:27;;;;;;;7.00;6.30;;;;;;;18.62;42.08;95599.78;5037977;28;20443;-68
2021/04/29 10:53:53;;;;;;;13.63;7.53;;;;;;;17.33;43.21;95615.00;5034251;28;20560;-68
2021/04/29 10:56:19;;;;;;;7.80;6.90;;;;;;;16.89;43.71;95601.34;5033773;28;20422;-68
2021/04/29 10:58:46;;;;;;;16.13;7.20;;;;;;;17.24;43.68;95615.59;5032500;28;20184;-68
2021/04/29 11:01:18;;;;;;;8.50;6.80;;;;;;;17.49;43.02;95608.16;5028724;28;20478;-67
2021/04/29 11:03:50;;;;;;;13.13;7.20;;;;;;;17.60;42.31;95611.81;5033441;28;20422;-68
2021/04/29 11:06:24;;;;;;;10.30;6.57;;;;;;;17.12;42.71;95607.69;5033423;28;20433;-69
2021/04/29 11:08:51;;;;;;;6.43;5.83;;;;;;;17.65;40.97;95606.59;5033144;28;20414;-69
2021/04/29 11:11:29;;;;;;;9.30;5.90;;;;;;;18.07;40.76;95602.88;5033098;28;20476;-67
2021/04/29 11:14:01;;;;;;;6.63;5.53;;;;;;;19.22;39.33;95600.06;5034073;28;20426;-68
2021/04/29 11:16:27;;;;;;;10.70;5.90;;;;;;;20.17;37.11;95593.66;5034479;28;20434;-68
2021/04/29 11:18:53;;;;;;;10.13;5.27;;;;;;;20.07;35.33;95595.16;5033462;28;20965;-67
2021/04/29 11:21:26;;;;;;;6.60;4.67;;;;;;;18.70;36.01;95602.00;5033291;28;20508;-67
2021/04/29 11:23:52;;;;;;;4.77;4.23;;;;;;;18.64;36.21;95590.50;5032779;28;21646;-68
2021/04/29 11:26:20;;;;;;;5.80;4.50;;;;;;;19.07;35.29;95606.00;5031643;28;20438;-67
2021/04/29 11:28:47;;;;;;;5.30;4.80;;;;;;;18.30;38.60;95624.19;5031732;28;20203;-68
2021/04/29 11:31:12;;;;;;;4.80;4.30;;;;;;;17.31;41.98;95629.50;5028618;28;20784;-68